sensor_id;sensor_type;location;lat;lon;timestamp;P1;durP1;ratioP1;P2;durP2;ratioP2
21731;SDS011;11028;51.156;17.130;2024-02-04T00:05:40;1.75;;;1.45;;
21731;SDS011;11028;51.156;17.130;2024-02-04T00:12:59;2.20;;;1.15;;
21731;SDS011;11028;51.156;17.130;2024-02-04T00:20:19;1.20;;;1.10;;
21731;SDS011;11028;51.156;17.130;2024-02-04T00:27:37;1.48;;;1.23;;
21731;SDS011;11028;51.156;17.130;2024-02-04T00:34:56;2.17;;;1.27;;
21731;SDS011;11028;51.156;17.130;2024-02-04T00:42:16;1.33;;;1.10;;
21731;SDS011;11028;51.156;17.130;2024-02-04T00:49:34;2.30;;;0.93;;
21731;SDS011;11028;51.156;17.130;2024-02-04T00:56:56;1.40;;;1.23;;
21731;SDS011;11028;51.156;17.130;2024-02-04T01:04:16;3.70;;;1.20;;
21731;SDS011;11028;51.156;17.130;2024-02-04T01:11:34;3.60;;;1.42;;
21731;SDS011;11028;51.156;17.130;2024-02-04T01:18:53;5.22;;;1.33;;
21731;SDS011;11028;51.156;17.130;2024-02-04T01:26:13;2.17;;;1.35;;
21731;SDS011;11028;51.156;17.130;2024-02-04T01:33:32;1.90;;;1.33;;
21731;SDS011;11028;51.156;17.130;2024-02-04T01:40:50;4.05;;;1.35;;
21731;SDS011;11028;51.156;17.130;2024-02-04T01:48:12;3.70;;;1.30;;
21731;SDS011;11028;51.156;17.130;2024-02-04T01:55:32;5.80;;;1.70;;
21731;SDS011;11028;51.156;17.130;2024-02-04T02:02:51;5.25;;;2.00;;
21731;SDS011;11028;51.156;17.130;2024-02-04T02:10:12;4.75;;;2.17;;
21731;SDS011;11028;51.156;17.130;2024-02-04T02:17:33;3.58;;;2.00;;
21731;SDS011;11028;51.156;17.130;2024-02-04T02:24:57;3.17;;;2.15;;
21731;SDS011;11028;51.156;17.130;2024-02-04T02:32:16;5.43;;;2.17;;
21731;SDS011;11028;51.156;17.130;2024-02-04T02:39:37;3.20;;;2.47;;
21731;SDS011;11028;51.156;17.130;2024-02-04T02:47:00;2.60;;;2.10;;
21731;SDS011;11028;51.156;17.130;2024-02-04T02:54:19;2.90;;;2.20;;
21731;SDS011;11028;51.156;17.130;2024-02-04T03:01:38;4.13;;;2.78;;
21731;SDS011;11028;51.156;17.130;2024-02-04T03:08:58;3.42;;;2.70;;
21731;SDS011;11028;51.156;17.130;2024-02-04T03:16:17;2.75;;;1.77;;
21731;SDS011;11028;51.156;17.130;2024-02-04T03:23:35;3.50;;;1.58;;
21731;SDS011;11028;51.156;17.130;2024-02-04T03:30:56;2.28;;;1.40;;
21731;SDS011;11028;51.156;17.130;2024-02-04T03:38:14;1.95;;;1.60;;
21731;SDS011;11028;51.156;17.130;2024-02-04T03:45:33;2.25;;;1.23;;
21731;SDS011;11028;51.156;17.130;2024-02-04T03:52:53;1.13;;;1.02;;
21731;SDS011;11028;51.156;17.130;2024-02-04T04:00:13;2.20;;;1.10;;
21731;SDS011;11028;51.156;17.130;2024-02-04T04:07:32;2.85;;;1.05;;
21731;SDS011;11028;51.156;17.130;2024-02-04T04:14:55;2.58;;;1.15;;
21731;SDS011;11028;51.156;17.130;2024-02-04T04:22:14;1.05;;;0.82;;
21731;SDS011;11028;51.156;17.130;2024-02-04T04:29:32;4.50;;;1.20;;
21731;SDS011;11028;51.156;17.130;2024-02-04T04:36:52;1.42;;;1.10;;
21731;SDS011;11028;51.156;17.130;2024-02-04T04:44:10;5.00;;;1.30;;
21731;SDS011;11028;51.156;17.130;2024-02-04T04:51:29;5.68;;;1.23;;
21731;SDS011;11028;51.156;17.130;2024-02-04T04:58:48;2.33;;;1.27;;
21731;SDS011;11028;51.156;17.130;2024-02-04T05:06:09;4.10;;;1.30;;
21731;SDS011;11028;51.156;17.130;2024-02-04T05:13:27;5.35;;;1.27;;
21731;SDS011;11028;51.156;17.130;2024-02-04T05:20:47;6.32;;;1.10;;
21731;SDS011;11028;51.156;17.130;2024-02-04T05:28:08;7.35;;;1.67;;
21731;SDS011;11028;51.156;17.130;2024-02-04T05:35:26;5.57;;;1.77;;
21731;SDS011;11028;51.156;17.130;2024-02-04T05:42:46;2.70;;;1.13;;
21731;SDS011;11028;51.156;17.130;2024-02-04T05:50:05;5.07;;;1.85;;
21731;SDS011;11028;51.156;17.130;2024-02-04T05:57:24;3.78;;;2.15;;
21731;SDS011;11028;51.156;17.130;2024-02-04T06:04:44;4.63;;;1.05;;
21731;SDS011;11028;51.156;17.130;2024-02-04T06:12:03;4.82;;;1.50;;
21731;SDS011;11028;51.156;17.130;2024-02-04T06:19:23;3.17;;;1.17;;
21731;SDS011;11028;51.156;17.130;2024-02-04T06:26:43;8.18;;;1.40;;
21731;SDS011;11028;51.156;17.130;2024-02-04T06:34:02;3.05;;;1.35;;
21731;SDS011;11028;51.156;17.130;2024-02-04T06:41:21;3.38;;;1.38;;
21731;SDS011;11028;51.156;17.130;2024-02-04T06:48:40;2.20;;;1.45;;
21731;SDS011;11028;51.156;17.130;2024-02-04T06:55:59;3.20;;;1.38;;
21731;SDS011;11028;51.156;17.130;2024-02-04T07:03:17;5.25;;;1.55;;
21731;SDS011;11028;51.156;17.130;2024-02-04T07:10:37;6.35;;;2.08;;
21731;SDS011;11028;51.156;17.130;2024-02-04T07:17:55;7.10;;;2.20;;
21731;SDS011;11028;51.156;17.130;2024-02-04T07:25:13;3.95;;;1.85;;
21731;SDS011;11028;51.156;17.130;2024-02-04T07:32:33;6.28;;;1.70;;
21731;SDS011;11028;51.156;17.130;2024-02-04T07:39:54;4.73;;;2.00;;
21731;SDS011;11028;51.156;17.130;2024-02-04T07:47:13;5.10;;;1.60;;
21731;SDS011;11028;51.156;17.130;2024-02-04T07:54:33;5.18;;;2.05;;
21731;SDS011;11028;51.156;17.130;2024-02-04T08:01:51;8.85;;;2.92;;
21731;SDS011;11028;51.156;17.130;2024-02-04T08:09:10;4.03;;;1.45;;
21731;SDS011;11028;51.156;17.130;2024-02-04T08:16:30;6.93;;;1.48;;
21731;SDS011;11028;51.156;17.130;2024-02-04T08:23:48;2.50;;;1.08;;
21731;SDS011;11028;51.156;17.130;2024-02-04T08:31:06;5.28;;;1.27;;
21731;SDS011;11028;51.156;17.130;2024-02-04T08:38:26;5.38;;;1.67;;
21731;SDS011;11028;51.156;17.130;2024-02-04T08:45:44;3.67;;;1.10;;
21731;SDS011;11028;51.156;17.130;2024-02-04T08:53:02;6.18;;;1.25;;
21731;SDS011;11028;51.156;17.130;2024-02-04T09:00:22;2.13;;;0.85;;
21731;SDS011;11028;51.156;17.130;2024-02-04T09:07:41;5.75;;;1.38;;
21731;SDS011;11028;51.156;17.130;2024-02-04T09:14:59;7.90;;;2.08;;
21731;SDS011;11028;51.156;17.130;2024-02-04T09:22:20;2.85;;;1.30;;
21731;SDS011;11028;51.156;17.130;2024-02-04T09:29:38;6.18;;;1.27;;
21731;SDS011;11028;51.156;17.130;2024-02-04T09:36:56;5.75;;;1.42;;
21731;SDS011;11028;51.156;17.130;2024-02-04T09:44:16;2.47;;;0.95;;
21731;SDS011;11028;51.156;17.130;2024-02-04T09:51:35;3.13;;;1.30;;
21731;SDS011;11028;51.156;17.130;2024-02-04T09:58:53;4.75;;;1.23;;
21731;SDS011;11028;51.156;17.130;2024-02-04T10:06:14;8.80;;;1.60;;
21731;SDS011;11028;51.156;17.130;2024-02-04T10:13:41;7.57;;;1.70;;
21731;SDS011;11028;51.156;17.130;2024-02-04T10:21:04;4.15;;;1.65;;
21731;SDS011;11028;51.156;17.130;2024-02-04T10:28:24;8.50;;;2.05;;
21731;SDS011;11028;51.156;17.130;2024-02-04T10:35:43;1.85;;;1.63;;
21731;SDS011;11028;51.156;17.130;2024-02-04T10:43:03;6.75;;;2.03;;
21731;SDS011;11028;51.156;17.130;2024-02-04T10:50:24;5.30;;;1.55;;
21731;SDS011;11028;51.156;17.130;2024-02-04T10:57:44;4.78;;;1.73;;
21731;SDS011;11028;51.156;17.130;2024-02-04T11:05:04;5.47;;;1.77;;
21731;SDS011;11028;51.156;17.130;2024-02-04T11:12:26;3.67;;;1.65;;
21731;SDS011;11028;51.156;17.130;2024-02-04T11:19:47;6.50;;;2.20;;
21731;SDS011;11028;51.156;17.130;2024-02-04T11:27:13;6.63;;;3.10;;
21731;SDS011;11028;51.156;17.130;2024-02-04T11:34:34;4.38;;;3.25;;
21731;SDS011;11028;51.156;17.130;2024-02-04T11:41:54;8.30;;;3.08;;
21731;SDS011;11028;51.156;17.130;2024-02-04T11:49:16;5.90;;;3.22;;
21731;SDS011;11028;51.156;17.130;2024-02-04T11:56:38;6.45;;;3.67;;
21731;SDS011;11028;51.156;17.130;2024-02-04T12:04:09;7.53;;;4.15;;
21731;SDS011;11028;51.156;17.130;2024-02-04T12:11:29;8.70;;;4.25;;
21731;SDS011;11028;51.156;17.130;2024-02-04T12:18:50;5.60;;;3.63;;
21731;SDS011;11028;51.156;17.130;2024-02-04T12:26:09;4.32;;;3.40;;
21731;SDS011;11028;51.156;17.130;2024-02-04T12:33:29;4.95;;;3.33;;
21731;SDS011;11028;51.156;17.130;2024-02-04T12:41:02;7.85;;;5.20;;
21731;SDS011;11028;51.156;17.130;2024-02-04T12:48:21;3.90;;;2.78;;
21731;SDS011;11028;51.156;17.130;2024-02-04T12:55:43;3.63;;;2.70;;
21731;SDS011;11028;51.156;17.130;2024-02-04T13:03:04;4.65;;;2.97;;
21731;SDS011;11028;51.156;17.130;2024-02-04T13:10:25;3.28;;;2.35;;
21731;SDS011;11028;51.156;17.130;2024-02-04T13:17:44;6.57;;;2.60;;
21731;SDS011;11028;51.156;17.130;2024-02-04T13:25:04;8.60;;;3.25;;
21731;SDS011;11028;51.156;17.130;2024-02-04T13:32:24;4.15;;;2.28;;
21731;SDS011;11028;51.156;17.130;2024-02-04T13:39:43;3.97;;;2.15;;
21731;SDS011;11028;51.156;17.130;2024-02-04T13:47:03;2.78;;;1.92;;
21731;SDS011;11028;51.156;17.130;2024-02-04T13:54:22;2.75;;;1.90;;
21731;SDS011;11028;51.156;17.130;2024-02-04T14:01:41;5.60;;;2.25;;
21731;SDS011;11028;51.156;17.130;2024-02-04T14:09:02;2.90;;;1.75;;
21731;SDS011;11028;51.156;17.130;2024-02-04T14:16:22;4.00;;;2.30;;
21731;SDS011;11028;51.156;17.130;2024-02-04T14:23:41;3.40;;;2.00;;
21731;SDS011;11028;51.156;17.130;2024-02-04T14:31:02;2.42;;;1.80;;
21731;SDS011;11028;51.156;17.130;2024-02-04T14:38:21;1.88;;;1.30;;
21731;SDS011;11028;51.156;17.130;2024-02-04T14:45:40;3.03;;;1.35;;
21731;SDS011;11028;51.156;17.130;2024-02-04T14:52:59;2.05;;;1.13;;
21731;SDS011;11028;51.156;17.130;2024-02-04T15:00:18;1.98;;;1.17;;
21731;SDS011;11028;51.156;17.130;2024-02-04T15:07:37;1.40;;;1.30;;
21731;SDS011;11028;51.156;17.130;2024-02-04T15:14:59;2.60;;;1.42;;
21731;SDS011;11028;51.156;17.130;2024-02-04T15:22:19;3.22;;;1.50;;
21731;SDS011;11028;51.156;17.130;2024-02-04T15:29:39;4.65;;;1.70;;
21731;SDS011;11028;51.156;17.130;2024-02-04T15:37:02;3.15;;;1.60;;
21731;SDS011;11028;51.156;17.130;2024-02-04T15:44:21;2.67;;;1.50;;
21731;SDS011;11028;51.156;17.130;2024-02-04T15:51:39;4.53;;;1.40;;
21731;SDS011;11028;51.156;17.130;2024-02-04T15:59:06;3.63;;;1.73;;
21731;SDS011;11028;51.156;17.130;2024-02-04T16:06:28;5.35;;;1.73;;
21731;SDS011;11028;51.156;17.130;2024-02-04T16:13:47;2.35;;;1.48;;
21731;SDS011;11028;51.156;17.130;2024-02-04T16:21:18;3.08;;;1.73;;
21731;SDS011;11028;51.156;17.130;2024-02-04T16:29:01;4.22;;;1.77;;
21731;SDS011;11028;51.156;17.130;2024-02-04T16:36:21;2.05;;;1.80;;
21731;SDS011;11028;51.156;17.130;2024-02-04T16:43:40;8.52;;;2.15;;
21731;SDS011;11028;51.156;17.130;2024-02-04T16:50:58;4.28;;;2.10;;
21731;SDS011;11028;51.156;17.130;2024-02-04T16:58:18;1.60;;;1.50;;
21731;SDS011;11028;51.156;17.130;2024-02-04T17:05:37;6.38;;;1.80;;
21731;SDS011;11028;51.156;17.130;2024-02-04T17:13:11;6.10;;;2.35;;
21731;SDS011;11028;51.156;17.130;2024-02-04T17:20:34;2.40;;;1.30;;
21731;SDS011;11028;51.156;17.130;2024-02-04T17:27:53;5.57;;;1.05;;
21731;SDS011;11028;51.156;17.130;2024-02-04T17:35:13;4.15;;;1.60;;
21731;SDS011;11028;51.156;17.130;2024-02-04T17:42:35;7.00;;;2.03;;
21731;SDS011;11028;51.156;17.130;2024-02-04T17:49:57;3.70;;;2.00;;
21731;SDS011;11028;51.156;17.130;2024-02-04T17:57:15;6.43;;;2.08;;
21731;SDS011;11028;51.156;17.130;2024-02-04T18:04:35;8.00;;;2.13;;
21731;SDS011;11028;51.156;17.130;2024-02-04T18:11:54;3.42;;;2.17;;
21731;SDS011;11028;51.156;17.130;2024-02-04T18:19:12;4.53;;;1.60;;
21731;SDS011;11028;51.156;17.130;2024-02-04T18:26:33;6.50;;;2.03;;
21731;SDS011;11028;51.156;17.130;2024-02-04T18:33:52;2.40;;;1.25;;
21731;SDS011;11028;51.156;17.130;2024-02-04T18:41:11;4.55;;;2.00;;
21731;SDS011;11028;51.156;17.130;2024-02-04T18:48:34;4.68;;;1.63;;
21731;SDS011;11028;51.156;17.130;2024-02-04T18:55:53;3.67;;;1.65;;
21731;SDS011;11028;51.156;17.130;2024-02-04T19:03:13;4.10;;;1.50;;
21731;SDS011;11028;51.156;17.130;2024-02-04T19:10:32;2.92;;;1.83;;
21731;SDS011;11028;51.156;17.130;2024-02-04T19:17:51;2.42;;;1.50;;
21731;SDS011;11028;51.156;17.130;2024-02-04T19:25:12;9.77;;;1.73;;
21731;SDS011;11028;51.156;17.130;2024-02-04T19:32:34;4.33;;;1.63;;
21731;SDS011;11028;51.156;17.130;2024-02-04T19:39:55;2.37;;;1.73;;
21731;SDS011;11028;51.156;17.130;2024-02-04T19:47:14;6.32;;;2.45;;
21731;SDS011;11028;51.156;17.130;2024-02-04T19:54:34;6.35;;;2.47;;
21731;SDS011;11028;51.156;17.130;2024-02-04T20:01:52;5.38;;;1.45;;
21731;SDS011;11028;51.156;17.130;2024-02-04T20:09:11;2.53;;;1.75;;
21731;SDS011;11028;51.156;17.130;2024-02-04T20:16:31;6.25;;;1.92;;
21731;SDS011;11028;51.156;17.130;2024-02-04T20:23:49;6.10;;;2.10;;
21731;SDS011;11028;51.156;17.130;2024-02-04T20:31:08;2.20;;;1.25;;
21731;SDS011;11028;51.156;17.130;2024-02-04T20:38:28;2.90;;;0.90;;
21731;SDS011;11028;51.156;17.130;2024-02-04T20:45:47;8.40;;;1.95;;
21731;SDS011;11028;51.156;17.130;2024-02-04T20:53:06;4.38;;;1.38;;
21731;SDS011;11028;51.156;17.130;2024-02-04T21:00:27;2.53;;;1.45;;
21731;SDS011;11028;51.156;17.130;2024-02-04T21:07:48;2.13;;;1.47;;
21731;SDS011;11028;51.156;17.130;2024-02-04T21:15:07;6.25;;;1.80;;
21731;SDS011;11028;51.156;17.130;2024-02-04T21:22:28;5.25;;;1.75;;
21731;SDS011;11028;51.156;17.130;2024-02-04T21:29:47;4.88;;;1.33;;
21731;SDS011;11028;51.156;17.130;2024-02-04T21:37:05;2.67;;;1.20;;
21731;SDS011;11028;51.156;17.130;2024-02-04T21:44:25;3.30;;;1.77;;
21731;SDS011;11028;51.156;17.130;2024-02-04T21:51:45;2.70;;;1.15;;
21731;SDS011;11028;51.156;17.130;2024-02-04T21:59:03;1.40;;;1.02;;
21731;SDS011;11028;51.156;17.130;2024-02-04T22:06:24;3.58;;;1.55;;
21731;SDS011;11028;51.156;17.130;2024-02-04T22:13:43;2.90;;;1.45;;
21731;SDS011;11028;51.156;17.130;2024-02-04T22:21:03;3.30;;;1.63;;
21731;SDS011;11028;51.156;17.130;2024-02-04T22:28:24;0.98;;;0.90;;
21731;SDS011;11028;51.156;17.130;2024-02-04T22:35:43;2.08;;;1.00;;
21731;SDS011;11028;51.156;17.130;2024-02-04T22:43:02;2.50;;;1.10;;
21731;SDS011;11028;51.156;17.130;2024-02-04T22:50:22;4.43;;;1.77;;
21731;SDS011;11028;51.156;17.130;2024-02-04T22:57:41;2.78;;;1.10;;
21731;SDS011;11028;51.156;17.130;2024-02-04T23:05:02;2.47;;;1.40;;
21731;SDS011;11028;51.156;17.130;2024-02-04T23:12:27;1.42;;;1.27;;
21731;SDS011;11028;51.156;17.130;2024-02-04T23:19:50;1.25;;;1.15;;
21731;SDS011;11028;51.156;17.130;2024-02-04T23:27:09;2.05;;;1.42;;
21731;SDS011;11028;51.156;17.130;2024-02-04T23:34:29;2.10;;;1.45;;
21731;SDS011;11028;51.156;17.130;2024-02-04T23:41:47;2.60;;;1.77;;
21731;SDS011;11028;51.156;17.130;2024-02-04T23:49:06;1.85;;;1.42;;
21731;SDS011;11028;51.156;17.130;2024-02-04T23:56:27;1.38;;;1.20;;
